Time;durP1;ratioP1;P1;durP2;ratioP2;P2;SDS_P1;SDS_P2;PMS_P1;PMS_P2;Temp;Humidity;BMP_temperature;BMP_pressure;BME280_temperature;BME280_humidity;BME280_pressure;Samples;Min_cycle;Max_cycle;Signal;HPM_P1;HPM_P2
2022/09/10 00:00:57;;;;;;;2.22;1.75;;;13.30;99.90;;;;;;4971268;28;20039;-86
2022/09/10 00:03:23;;;;;;;1.33;1.23;;;13.20;99.90;;;;;;4970879;28;20027;-87
2022/09/10 00:05:49;;;;;;;1.40;1.33;;;13.30;99.90;;;;;;4971669;28;20061;-86
2022/09/10 00:08:17;;;;;;;1.50;1.40;;;13.30;99.90;;;;;;4972447;28;20124;-86
2022/09/10 00:10:45;;;;;;;2.42;1.40;;;13.20;99.90;;;;;;4990519;28;20034;-86
2022/09/10 00:13:11;;;;;;;;;;;13.10;99.90;;;;;;4975701;28;20034;-86
2022/09/10 00:15:49;;;;;;;1.17;1.08;;;13.10;99.90;;;;;;4972598;28;19918;-86
2022/09/10 00:18:17;;;;;;;2.70;1.27;;;13.20;99.90;;;;;;4973710;28;20039;-86
2022/09/10 00:20:47;;;;;;;1.20;1.10;;;13.20;99.90;;;;;;4991430;28;20462;-86
2022/09/10 00:23:18;;;;;;;1.23;1.13;;;13.20;99.90;;;;;;4975050;28;20626;-86
2022/09/10 00:25:45;;;;;;;0.95;0.95;;;13.20;99.90;;;;;;5002046;28;20084;-86
2022/09/10 00:28:11;;;;;;;0.95;0.80;;;13.20;99.90;;;;;;4975701;28;20022;-86
2022/09/10 00:30:41;;;;;;;0.88;0.80;;;13.10;99.90;;;;;;4974488;28;20069;-86
2022/09/10 00:33:07;;;;;;;1.20;1.10;;;13.00;99.90;;;;;;4989476;28;20394;-86
2022/09/10 00:35:33;;;;;;;0.90;0.90;;;13.10;99.90;;;;;;4975319;28;20019;-86
2022/09/10 00:37:59;;;;;;;1.83;1.25;;;13.10;99.90;;;;;;4973666;28;20026;-86
2022/09/10 00:40:25;;;;;;;3.50;0.80;;;13.10;99.90;;;;;;4975221;28;20030;-86
2022/09/10 00:42:51;;;;;;;0.80;0.80;;;13.20;99.90;;;;;;4972976;28;20030;-86
2022/09/10 00:45:23;;;;;;;1.27;0.80;;;13.10;99.90;;;;;;4990055;28;20574;-86
2022/09/10 00:47:52;;;;;;;1.30;0.90;;;13.20;99.90;;;;;;4974078;28;20394;-84
2022/09/10 00:50:39;;;;;;;0.65;0.65;;;13.20;99.90;;;;;;4973059;28;20039;-86
2022/09/10 00:53:09;;;;;;;0.65;0.65;;;13.20;99.90;;;;;;4971836;28;20380;-86
2022/09/10 00:55:38;;;;;;;1.48;0.70;;;13.20;99.90;;;;;;4972411;28;20040;-86
2022/09/10 00:58:07;;;;;;;1.85;0.70;;;13.20;99.90;;;;;;4975829;28;20038;-86
2022/09/10 01:00:33;;;;;;;0.90;0.90;;;13.30;99.90;;;;;;4989866;28;20038;-86
2022/09/10 01:02:59;;;;;;;1.33;0.60;;;13.20;99.90;;;;;;4975136;28;20026;-86
2022/09/10 01:05:26;;;;;;;1.95;0.60;;;13.20;99.90;;;;;;4976165;28;20028;-86
2022/09/10 01:07:56;;;;;;;0.60;0.60;;;13.20;99.90;;;;;;4977768;28;20043;-86
2022/09/10 01:10:29;;;;;;;0.60;0.60;;;13.20;99.90;;;;;;4976237;28;20026;-86
2022/09/10 01:12:58;;;;;;;2.70;1.15;;;13.20;99.90;;;;;;4973943;28;20099;-86
2022/09/10 01:15:44;;;;;;;0.80;0.80;;;13.10;99.90;;;;;;4975164;28;20089;-86
2022/09/10 01:18:10;;;;;;;1.00;0.75;;;13.10;99.90;;;;;;4976575;28;20905;-86
2022/09/10 01:21:05;;;;;;;1.05;0.90;;;13.10;99.90;;;;;;4978814;28;20038;-86
2022/09/10 01:23:49;;;;;;;1.23;0.80;;;13.10;99.90;;;;;;4981409;28;20030;-86
2022/09/10 01:26:46;;;;;;;0.77;0.77;;;13.10;99.90;;;;;;4981518;28;20168;-86
2022/09/10 01:29:40;;;;;;;0.80;0.80;;;13.20;99.90;;;;;;4976125;28;20037;-86
2022/09/10 01:32:14;;;;;;;0.60;0.60;;;13.20;99.90;;;;;;5021909;28;20042;-86
2022/09/10 01:34:51;;;;;;;1.35;0.60;;;13.20;99.90;;;;;;4994051;28;20089;-86
2022/09/10 01:37:30;;;;;;;1.17;0.80;;;13.20;99.90;;;;;;4997729;28;20030;-86
2022/09/10 01:39:58;;;;;;;1.42;0.70;;;13.20;99.90;;;;;;5003785;28;20042;-86
2022/09/10 01:42:25;;;;;;;0.73;0.60;;;13.10;99.90;;;;;;4977021;28;20050;-86
2022/09/10 01:44:53;;;;;;;0.70;0.70;;;13.10;99.90;;;;;;4978675;28;20081;-86
2022/09/10 01:47:34;;;;;;;1.27;1.23;;;13.20;99.90;;;;;;4978510;28;20107;-86
2022/09/10 01:50:13;;;;;;;0.75;0.73;;;13.10;99.90;;;;;;4973676;28;20035;-86
2022/09/10 01:53:01;;;;;;;0.70;0.70;;;13.10;99.90;;;;;;4975810;28;20038;-86
2022/09/10 01:55:52;;;;;;;0.80;0.80;;;13.00;99.90;;;;;;4973345;28;20030;-86
2022/09/10 01:58:36;;;;;;;0.73;0.73;;;12.90;99.90;;;;;;4991275;28;20431;-86
2022/09/10 02:01:08;;;;;;;0.82;0.82;;;12.70;99.90;;;;;;4974322;28;20030;-86
2022/09/10 02:03:36;;;;;;;7.45;0.90;;;12.60;99.90;;;;;;4973784;28;20018;-86
2022/09/10 02:06:03;;;;;;;2.47;0.80;;;12.60;99.90;;;;;;4975485;28;20510;-86
2022/09/10 02:08:36;;;;;;;1.33;0.63;;;12.60;99.90;;;;;;4977577;28;20030;-86
2022/09/10 02:11:05;;;;;;;1.10;1.05;;;12.60;99.90;;;;;;4974482;28;20034;-85
2022/09/10 02:13:32;;;;;;;2.00;1.05;;;12.70;99.90;;;;;;4974174;28;20019;-86
2022/09/10 02:16:01;;;;;;;1.90;0.98;;;12.60;99.90;;;;;;4977981;28;20427;-86
2022/09/10 02:18:27;;;;;;;0.95;0.68;;;12.60;99.90;;;;;;4981179;28;20028;-86
2022/09/10 02:20:55;;;;;;;1.00;0.80;;;12.50;99.90;;;;;;4978233;28;20021;-86
2022/09/10 02:23:27;;;;;;;1.03;0.70;;;12.50;99.90;;;;;;4979423;28;20050;-86
2022/09/10 02:25:52;;;;;;;0.60;0.60;;;12.50;99.90;;;;;;4977535;28;20027;-86
2022/09/10 02:28:19;;;;;;;0.98;0.90;;;12.50;99.90;;;;;;4978918;28;20100;-86
2022/09/10 02:30:45;;;;;;;2.28;0.73;;;12.40;99.90;;;;;;4978955;28;20027;-86
2022/09/10 02:33:11;;;;;;;0.70;0.70;;;12.40;99.90;;;;;;4980352;28;20026;-86
2022/09/10 02:35:36;;;;;;;1.42;1.33;;;12.50;99.90;;;;;;4977628;28;20037;-86
2022/09/10 02:38:04;;;;;;;0.73;0.73;;;12.50;99.90;;;;;;4978698;28;20038;-86
2022/09/10 02:40:30;;;;;;;0.80;0.80;;;12.50;99.90;;;;;;4977559;28;20033;-86
2022/09/10 02:42:56;;;;;;;1.27;1.17;;;12.50;99.90;;;;;;4977062;28;20034;-86
2022/09/10 02:45:22;;;;;;;0.98;0.98;;;12.50;99.90;;;;;;4978417;28;20026;-86
2022/09/10 02:47:47;;;;;;;1.05;0.95;;;12.60;99.90;;;;;;4979027;28;20022;-86
2022/09/10 02:50:14;;;;;;;1.42;1.00;;;12.60;99.90;;;;;;4976212;28;20026;-86
2022/09/10 02:52:40;;;;;;;3.35;0.90;;;12.60;99.90;;;;;;5006563;28;20426;-86
2022/09/10 02:55:07;;;;;;;0.90;0.90;;;12.60;99.90;;;;;;4974717;28;20034;-86
2022/09/10 02:57:32;;;;;;;0.90;0.75;;;12.60;99.90;;;;;;4981064;28;20061;-86
2022/09/10 02:59:58;;;;;;;2.35;0.95;;;12.60;99.90;;;;;;4976099;28;20022;-86
2022/09/10 03:02:24;;;;;;;2.40;0.70;;;12.60;99.90;;;;;;4977009;28;20042;-86
2022/09/10 03:04:50;;;;;;;1.20;0.98;;;12.60;99.90;;;;;;4975490;28;20022;-86
2022/09/10 03:07:18;;;;;;;2.25;0.90;;;12.70;99.90;;;;;;4989346;28;20722;-86
2022/09/10 03:09:45;;;;;;;0.90;0.90;;;12.70;99.90;;;;;;4976811;28;20034;-88
2022/09/10 03:12:10;;;;;;;1.25;0.90;;;12.70;99.90;;;;;;4978266;28;20040;-86
2022/09/10 03:14:36;;;;;;;0.82;0.77;;;12.70;99.90;;;;;;4979345;28;20562;-86
2022/09/10 03:17:02;;;;;;;1.20;0.90;;;12.70;99.90;;;;;;4980788;28;20042;-86
2022/09/10 03:19:28;;;;;;;1.92;1.05;;;12.70;99.90;;;;;;4981043;28;20030;-86
2022/09/10 03:21:53;;;;;;;1.23;0.90;;;12.70;99.90;;;;;;4978078;28;20064;-86
2022/09/10 03:24:21;;;;;;;0.77;0.77;;;12.70;99.90;;;;;;4978919;28;20030;-86
2022/09/10 03:26:46;;;;;;;1.05;1.00;;;12.70;99.90;;;;;;4980618;28;20037;-86
2022/09/10 03:29:14;;;;;;;2.20;0.75;;;12.70;99.90;;;;;;4977815;28;20035;-86
2022/09/10 03:31:40;;;;;;;0.77;0.77;;;12.70;99.90;;;;;;4981118;28;20058;-86
2022/09/10 03:34:05;;;;;;;0.80;0.80;;;12.70;99.90;;;;;;4980404;28;20042;-86
2022/09/10 03:36:31;;;;;;;1.02;0.80;;;12.80;99.90;;;;;;4980754;28;20026;-86
2022/09/10 03:39:00;;;;;;;0.98;0.80;;;12.80;99.90;;;;;;4977371;28;20474;-86
2022/09/10 03:41:27;;;;;;;1.08;1.08;;;12.80;99.90;;;;;;4980418;28;20061;-86
2022/09/10 03:43:53;;;;;;;1.17;1.10;;;12.80;99.90;;;;;;4983279;28;20513;-86
2022/09/10 03:46:21;;;;;;;1.27;0.75;;;12.80;99.90;;;;;;4980801;28;20027;-86
2022/09/10 03:48:47;;;;;;;0.75;0.73;;;12.90;99.90;;;;;;4977080;28;20118;-86
2022/09/10 03:51:12;;;;;;;2.80;0.80;;;12.90;99.90;;;;;;4978849;28;20117;-86
2022/09/10 03:53:39;;;;;;;0.68;0.68;;;12.90;99.90;;;;;;4993416;28;20616;-86
2022/09/10 03:56:05;;;;;;;1.77;0.90;;;12.80;99.90;;;;;;5007334;28;20498;-86
2022/09/10 03:58:31;;;;;;;1.23;0.90;;;12.80;99.90;;;;;;4977117;28;20030;-86
2022/09/10 04:00:57;;;;;;;0.60;0.60;;;12.80;99.90;;;;;;4991791;28;20185;-86
2022/09/10 04:03:23;;;;;;;0.77;0.60;;;12.80;99.90;;;;;;4974216;28;20127;-86
2022/09/10 04:05:49;;;;;;;1.40;0.70;;;12.80;99.90;;;;;;4976232;28;20142;-86
2022/09/10 04:08:15;;;;;;;0.70;0.70;;;12.70;99.90;;;;;;4976690;28;20023;-86
2022/09/10 04:10:41;;;;;;;0.70;0.70;;;12.70;99.90;;;;;;4992039;28;20030;-86
2022/09/10 04:13:08;;;;;;;0.80;0.80;;;12.70;99.90;;;;;;4978806;28;20029;-86
2022/09/10 04:15:33;;;;;;;0.77;0.77;;;12.70;99.90;;;;;;4994159;28;20041;-86
2022/09/10 04:17:59;;;;;;;1.33;0.80;;;12.80;99.90;;;;;;4975237;28;20030;-86
2022/09/10 04:20:25;;;;;;;0.80;0.80;;;12.80;99.90;;;;;;4978220;28;20038;-86
2022/09/10 04:22:51;;;;;;;2.47;0.90;;;12.80;99.90;;;;;;4978784;28;20026;-86
2022/09/10 04:25:18;;;;;;;0.57;0.50;;;12.90;99.90;;;;;;4981826;28;20066;-86
2022/09/10 04:27:45;;;;;;;0.85;0.70;;;12.90;99.90;;;;;;4978606;28;21262;-86
2022/09/10 04:30:11;;;;;;;0.95;0.95;;;12.90;99.90;;;;;;4980594;28;20076;-86
2022/09/10 04:32:37;;;;;;;1.73;0.75;;;12.90;99.90;;;;;;4974804;28;20206;-86
2022/09/10 04:35:04;;;;;;;0.90;0.90;;;12.90;99.90;;;;;;4994788;28;20061;-86
2022/09/10 04:37:30;;;;;;;2.22;0.77;;;12.90;99.90;;;;;;4978318;28;20022;-86
2022/09/10 04:39:56;;;;;;;0.80;0.50;;;12.90;99.90;;;;;;4977590;28;20186;-86
2022/09/10 04:42:22;;;;;;;1.88;1.10;;;12.80;99.90;;;;;;4977957;28;20026;-86
2022/09/10 04:44:48;;;;;;;1.67;0.80;;;12.80;99.90;;;;;;4976543;28;20027;-86
2022/09/10 04:47:17;;;;;;;1.20;1.10;;;12.90;99.90;;;;;;4977178;28;20475;-86
2022/09/10 04:49:42;;;;;;;1.15;0.90;;;12.90;99.90;;;;;;4978071;28;20030;-86
2022/09/10 04:52:10;;;;;;;0.80;0.77;;;12.90;99.90;;;;;;4977427;28;20035;-86
2022/09/10 04:54:36;;;;;;;1.08;0.80;;;12.90;99.90;;;;;;4973079;28;20097;-86
2022/09/10 04:57:06;;;;;;;1.02;0.90;;;12.90;99.90;;;;;;4974844;28;20479;-86
2022/09/10 04:59:31;;;;;;;1.25;1.05;;;13.00;99.90;;;;;;4993254;28;20027;-86
2022/09/10 05:01:57;;;;;;;2.45;1.33;;;13.00;99.90;;;;;;4977878;28;20041;-86
2022/09/10 05:04:23;;;;;;;2.05;1.05;;;12.90;99.90;;;;;;4978591;28;20038;-86
2022/09/10 05:06:49;;;;;;;2.15;1.20;;;12.90;99.90;;;;;;4978149;28;20087;-86
2022/09/10 05:09:16;;;;;;;0.70;0.70;;;12.90;99.90;;;;;;4977813;28;20057;-86
2022/09/10 05:11:42;;;;;;;1.55;1.00;;;12.90;99.90;;;;;;4976970;28;20368;-86
2022/09/10 05:14:08;;;;;;;1.40;1.00;;;12.90;99.90;;;;;;4978491;28;20034;-86
2022/09/10 05:16:35;;;;;;;2.50;0.80;;;13.00;99.90;;;;;;4977574;28;20034;-86
2022/09/10 05:19:01;;;;;;;2.28;0.80;;;13.00;99.90;;;;;;4975771;28;20609;-86
2022/09/10 05:21:28;;;;;;;0.80;0.80;;;13.00;99.90;;;;;;4977175;28;20034;-85
2022/09/10 05:23:54;;;;;;;2.15;0.70;;;12.90;99.90;;;;;;4974514;28;20027;-86
2022/09/10 05:26:21;;;;;;;0.95;0.70;;;13.00;99.90;;;;;;4980082;28;20027;-85
2022/09/10 05:28:46;;;;;;;0.70;0.70;;;13.00;99.90;;;;;;4979588;28;20030;-86
2022/09/10 05:31:12;;;;;;;2.42;0.82;;;13.00;99.90;;;;;;4973011;28;20037;-86
2022/09/10 05:33:39;;;;;;;4.00;1.10;;;13.00;99.90;;;;;;4982975;28;20041;-85
2022/09/10 05:36:08;;;;;;;1.00;0.90;;;13.10;99.90;;;;;;4977330;28;20159;-85
2022/09/10 05:38:34;;;;;;;2.40;1.00;;;13.00;99.90;;;;;;4989170;28;20030;-86
2022/09/10 05:41:00;;;;;;;1.33;1.05;;;13.10;99.90;;;;;;5008376;28;20108;-86
2022/09/10 05:43:26;;;;;;;1.98;1.13;;;13.10;99.90;;;;;;4993506;28;20338;-86
2022/09/10 05:45:52;;;;;;;2.10;1.10;;;13.10;99.90;;;;;;4977680;28;20064;-85
2022/09/10 05:48:18;;;;;;;3.97;1.13;;;13.20;99.90;;;;;;4976295;28;20502;-86
2022/09/10 05:50:44;;;;;;;1.60;1.10;;;13.20;99.90;;;;;;4977748;28;20117;-86
2022/09/10 05:53:11;;;;;;;1.17;1.08;;;13.20;99.90;;;;;;4980792;28;20098;-86
2022/09/10 05:55:36;;;;;;;1.73;1.30;;;13.10;99.90;;;;;;4978082;28;20057;-86
2022/09/10 05:58:02;;;;;;;1.33;1.23;;;13.10;99.90;;;;;;4980129;28;20127;-86
2022/09/10 06:00:29;;;;;;;2.40;1.20;;;13.10;99.90;;;;;;4978815;28;20045;-86
2022/09/10 06:02:56;;;;;;;1.42;1.10;;;13.10;99.90;;;;;;4981241;28;20027;-86
2022/09/10 06:05:28;;;;;;;1.48;1.08;;;13.20;99.90;;;;;;4976954;28;20436;-86
2022/09/10 06:07:53;;;;;;;1.30;1.20;;;13.20;99.90;;;;;;4977333;28;20399;-87
2022/09/10 06:10:19;;;;;;;2.70;0.90;;;13.20;99.90;;;;;;4999648;28;20033;-86
2022/09/10 06:12:48;;;;;;;0.93;0.93;;;13.20;99.90;;;;;;4978743;28;20030;-86
2022/09/10 06:15:14;;;;;;;0.95;0.90;;;13.30;99.90;;;;;;4981360;28;20062;-86
2022/09/10 06:17:40;;;;;;;1.30;0.93;;;13.30;99.90;;;;;;4978671;28;20038;-86
2022/09/10 06:20:06;;;;;;;0.90;0.90;;;13.30;99.90;;;;;;4981052;28;20034;-86
2022/09/10 06:22:33;;;;;;;1.33;1.00;;;13.30;99.90;;;;;;4983677;28;20113;-86
2022/09/10 06:24:59;;;;;;;0.95;0.80;;;13.30;99.90;;;;;;4979249;28;20030;-86
2022/09/10 06:27:25;;;;;;;0.65;0.65;;;13.30;99.90;;;;;;4984010;28;20054;-86
2022/09/10 06:29:51;;;;;;;0.95;0.82;;;13.30;99.90;;;;;;4979045;28;20101;-86
2022/09/10 06:32:16;;;;;;;0.80;0.80;;;13.40;99.90;;;;;;4982025;28;20030;-86
2022/09/10 06:34:42;;;;;;;1.13;0.73;;;13.40;99.90;;;;;;4984231;28;20034;-86
2022/09/10 06:37:08;;;;;;;2.33;0.88;;;13.50;99.90;;;;;;4980491;28;20124;-86
2022/09/10 06:39:35;;;;;;;5.78;0.98;;;13.50;99.90;;;;;;4977262;28;20468;-86
2022/09/10 06:42:00;;;;;;;1.33;1.00;;;13.60;99.90;;;;;;4979398;28;20022;-86
2022/09/10 06:44:28;;;;;;;1.38;0.80;;;13.60;99.90;;;;;;4980816;28;20098;-86
2022/09/10 06:46:54;;;;;;;1.60;0.80;;;13.70;99.90;;;;;;4979259;28;20018;-86
2022/09/10 06:49:22;;;;;;;2.72;0.90;;;13.70;99.90;;;;;;4982240;28;20045;-86
2022/09/10 06:51:51;;;;;;;3.13;1.00;;;13.90;99.90;;;;;;4980481;28;20529;-86
2022/09/10 06:54:17;;;;;;;;;;;13.90;99.90;;;;;;4981647;28;20034;-86
2022/09/10 06:56:45;;;;;;;1.40;0.80;;;14.00;99.90;;;;;;4977999;28;20000;-85
2022/09/10 06:59:17;;;;;;;0.60;0.60;;;13.90;99.90;;;;;;4983826;28;20122;-86
2022/09/10 07:01:43;;;;;;;1.00;0.60;;;14.00;99.90;;;;;;4978021;28;20062;-86
2022/09/10 07:04:09;;;;;;;0.80;0.80;;;14.00;99.90;;;;;;4977657;28;20061;-85
2022/09/10 07:06:35;;;;;;;0.70;0.70;;;14.00;99.90;;;;;;4981253;28;20038;-87
2022/09/10 07:09:02;;;;;;;0.80;0.65;;;14.10;99.90;;;;;;4977941;28;20039;-86
2022/09/10 07:11:29;;;;;;;0.73;0.73;;;14.00;99.90;;;;;;4979962;28;20026;-86
2022/09/10 07:13:55;;;;;;;1.25;0.55;;;14.10;99.90;;;;;;4981537;28;20038;-86
2022/09/10 07:16:25;;;;;;;0.60;0.60;;;14.10;99.90;;;;;;4977221;28;20712;-86
2022/09/10 07:18:53;;;;;;;0.82;0.80;;;14.10;99.90;;;;;;4977153;28;20034;-86
2022/09/10 07:21:20;;;;;;;0.70;0.70;;;14.10;99.90;;;;;;4995583;28;20022;-85
2022/09/10 07:23:50;;;;;;;0.47;0.47;;;14.10;99.90;;;;;;4981675;28;20029;-86
2022/09/10 07:26:21;;;;;;;0.65;0.50;;;14.10;99.90;;;;;;4978337;28;20025;-86
2022/09/10 07:28:47;;;;;;;0.95;0.65;;;14.20;99.90;;;;;;4979248;28;20101;-86
2022/09/10 07:31:23;;;;;;;1.40;0.75;;;14.30;99.90;;;;;;4977786;28;20045;-86
2022/09/10 07:33:49;;;;;;;0.63;0.40;;;14.40;99.90;;;;;;4976009;28;20026;-86
2022/09/10 07:36:16;;;;;;;0.90;0.80;;;14.50;99.90;;;;;;4978661;28;20039;-86
2022/09/10 07:38:42;;;;;;;0.60;0.60;;;14.50;99.90;;;;;;4982093;28;20041;-86
2022/09/10 07:41:13;;;;;;;0.70;0.70;;;14.70;99.90;;;;;;4982623;28;20030;-85
2022/09/10 07:43:42;;;;;;;0.52;0.52;;;14.80;99.90;;;;;;4980864;28;20081;-86
2022/09/10 07:46:19;;;;;;;0.65;0.60;;;15.10;99.90;;;;;;4980523;28;20084;-86
2022/09/10 07:48:51;;;;;;;0.88;0.80;;;15.20;99.90;;;;;;4975587;28;20054;-86
2022/09/10 07:51:18;;;;;;;0.60;0.60;;;15.40;99.90;;;;;;4982278;28;20072;-86
2022/09/10 07:53:45;;;;;;;0.90;0.65;;;15.40;99.90;;;;;;4993827;28;20026;-86
2022/09/10 07:56:11;;;;;;;0.57;0.57;;;15.40;99.90;;;;;;4977725;28;20022;-86
2022/09/10 07:58:38;;;;;;;1.35;0.65;;;15.30;99.90;;;;;;4977888;28;20025;-86
2022/09/10 08:01:10;;;;;;;0.85;0.63;;;15.20;99.90;;;;;;4979335;28;20113;-87
2022/09/10 08:03:36;;;;;;;0.88;0.88;;;15.20;99.90;;;;;;4978641;28;20031;-86
2022/09/10 08:06:03;;;;;;;0.80;0.80;;;15.20;99.90;;;;;;4976684;28;20042;-86
2022/09/10 08:08:30;;;;;;;0.77;0.73;;;15.20;99.90;;;;;;4977103;28;20019;-86
2022/09/10 08:11:07;;;;;;;1.60;0.63;;;15.20;99.90;;;;;;4977939;28;20094;-86
2022/09/10 08:13:36;;;;;;;0.68;0.60;;;15.20;99.90;;;;;;4976429;28;20529;-86
2022/09/10 08:16:11;;;;;;;1.70;0.80;;;15.10;99.90;;;;;;4980788;28;20042;-86
2022/09/10 08:18:37;;;;;;;0.60;0.60;;;15.20;99.90;;;;;;4975863;28;20030;-87
2022/09/10 08:21:04;;;;;;;0.65;0.60;;;15.30;99.90;;;;;;4975561;28;20135;-87
2022/09/10 08:23:30;;;;;;;0.82;0.80;;;15.30;99.90;;;;;;4972520;28;20046;-86
2022/09/10 08:25:57;;;;;;;1.20;0.70;;;15.40;99.90;;;;;;4972596;28;20032;-86
2022/09/10 08:31:11;;;;;;;1.50;0.75;;;15.40;99.90;;;;;;4988745;28;20034;-86
2022/09/10 08:33:38;;;;;;;1.45;0.73;;;15.40;99.90;;;;;;4990098;28;20105;-86
2022/09/10 08:36:07;;;;;;;0.55;0.55;;;15.50;99.90;;;;;;4975345;28;20034;-86
2022/09/10 08:38:35;;;;;;;0.82;0.65;;;15.40;99.90;;;;;;4991279;28;20037;-86
2022/09/10 08:41:22;;;;;;;;;;;15.30;99.90;;;;;;4976034;28;20040;-86
2022/09/10 08:44:08;;;;;;;2.00;0.68;;;15.30;99.90;;;;;;4976125;28;20276;-86
2022/09/10 08:46:42;;;;;;;1.38;0.75;;;15.30;99.90;;;;;;4976042;28;20030;-86
2022/09/10 08:49:36;;;;;;;1.83;0.70;;;15.40;99.90;;;;;;4976118;28;20029;-86
2022/09/10 08:52:23;;;;;;;0.55;0.55;;;15.50;99.90;;;;;;4990854;28;20034;-86
2022/09/10 08:55:05;;;;;;;0.52;0.52;;;15.50;99.90;;;;;;4977021;28;20034;-86
2022/09/10 08:58:17;;;;;;;0.57;0.57;;;15.50;99.90;;;;;;4976566;28;20068;-86
2022/09/10 09:00:44;;;;;;;1.00;0.55;;;15.40;99.90;;;;;;4974425;28;20050;-86
2022/09/10 09:03:36;;;;;;;0.60;0.60;;;15.50;99.90;;;;;;4978310;28;20038;-86
2022/09/10 09:06:04;;;;;;;0.60;0.60;;;15.50;99.90;;;;;;4974439;28;20069;-86
2022/09/10 09:08:35;;;;;;;;;;;15.60;99.90;;;;;;4991589;28;20030;-86
2022/09/10 09:11:10;;;;;;;1.13;0.68;;;15.60;99.90;;;;;;5002655;28;19952;-86
2022/09/10 09:13:53;;;;;;;0.82;0.80;;;15.70;99.90;;;;;;4987974;28;20528;-86
2022/09/10 09:16:40;;;;;;;0.50;0.50;;;15.80;99.90;;;;;;4979373;28;20041;-87
2022/09/10 09:19:21;;;;;;;0.77;0.52;;;15.80;99.90;;;;;;4978237;28;20034;-86
2022/09/10 09:21:46;;;;;;;0.85;0.60;;;15.90;99.90;;;;;;5004354;28;20030;-86
2022/09/10 09:24:28;;;;;;;0.73;0.50;;;16.00;99.90;;;;;;4978557;28;20590;-86
2022/09/10 09:27:08;;;;;;;0.50;0.50;;;16.10;99.90;;;;;;4983790;28;20052;-87
2022/09/10 09:29:42;;;;;;;0.40;0.40;;;16.10;99.90;;;;;;4982444;28;20034;-86
2022/09/10 09:32:14;;;;;;;0.40;0.40;;;16.20;99.90;;;;;;4998088;28;20077;-87
2022/09/10 09:34:49;;;;;;;0.70;0.65;;;16.00;99.90;;;;;;4983798;28;20030;-86
2022/09/10 09:37:33;;;;;;;0.40;0.40;;;16.00;99.90;;;;;;4979187;28;20030;-86
2022/09/10 09:40:36;;;;;;;1.65;0.40;;;16.00;99.90;;;;;;4986199;28;20089;-87
2022/09/10 09:43:27;;;;;;;0.30;0.30;;;15.90;99.90;;;;;;4978981;28;20019;-86
2022/09/10 09:45:53;;;;;;;0.60;0.60;;;16.00;99.90;;;;;;5010012;28;20026;-86
2022/09/10 09:48:21;;;;;;;0.55;0.50;;;16.10;99.90;;;;;;4982694;28;20052;-87
2022/09/10 09:50:55;;;;;;;0.50;0.50;;;16.10;99.90;;;;;;4979788;28;20129;-86
2022/09/10 09:53:24;;;;;;;1.45;0.40;;;16.20;99.90;;;;;;4996199;28;20053;-86
2022/09/10 09:55:58;;;;;;;0.93;0.50;;;16.00;99.90;;;;;;4981892;28;20033;-86
2022/09/10 09:58:27;;;;;;;7.22;0.85;;;15.90;99.90;;;;;;4983915;28;20022;-86
2022/09/10 10:00:54;;;;;;;;;;;15.90;99.90;;;;;;4984918;28;20038;-86
2022/09/10 10:03:24;;;;;;;0.40;0.40;;;15.80;99.90;;;;;;4980435;28;20550;-86
2022/09/10 10:06:05;;;;;;;0.80;0.57;;;15.80;99.90;;;;;;4977267;28;20046;-86
2022/09/10 10:08:36;;;;;;;0.68;0.68;;;15.90;99.90;;;;;;4980855;28;20669;-86
2022/09/10 10:11:02;;;;;;;1.90;0.47;;;15.90;99.90;;;;;;4981269;28;20090;-86
2022/09/10 10:13:39;;;;;;;0.57;0.40;;;15.90;99.90;;;;;;5008345;28;20029;-86
2022/09/10 10:16:36;;;;;;;1.75;0.65;;;16.00;99.90;;;;;;4977619;28;20029;-86
2022/09/10 10:19:22;;;;;;;0.30;0.30;;;16.20;99.90;;;;;;4978142;28;20117;-86
2022/09/10 10:21:48;;;;;;;0.40;0.40;;;16.20;99.90;;;;;;4979438;28;20026;-86
2022/09/10 10:24:32;;;;;;;0.50;0.50;;;16.40;99.90;;;;;;4979525;28;20121;-86
2022/09/10 10:26:58;;;;;;;0.40;0.40;;;16.50;99.90;;;;;;4979698;28;20157;-86
2022/09/10 10:29:25;;;;;;;0.85;0.55;;;16.90;99.90;;;;;;4997557;28;20038;-86
2022/09/10 10:31:52;;;;;;;0.65;0.65;;;17.10;99.90;;;;;;4977339;28;20034;-86
2022/09/10 10:34:33;;;;;;;2.90;0.73;;;17.20;99.90;;;;;;4982349;28;20480;-86
2022/09/10 10:37:08;;;;;;;0.65;0.65;;;17.40;99.90;;;;;;4982710;28;20278;-86
2022/09/10 10:39:59;;;;;;;1.08;0.60;;;17.40;99.90;;;;;;4980982;28;20058;-86
2022/09/10 10:42:30;;;;;;;0.57;0.55;;;17.40;99.90;;;;;;4996344;28;20463;-86
2022/09/10 10:45:20;;;;;;;2.45;0.80;;;17.50;99.90;;;;;;4980527;28;20026;-86
2022/09/10 10:48:08;;;;;;;0.50;0.50;;;17.80;99.90;;;;;;4981592;28;20034;-86
2022/09/10 10:50:41;;;;;;;0.93;0.85;;;17.90;99.90;;;;;;4979871;28;20042;-86
2022/09/10 10:53:21;;;;;;;0.40;0.40;;;17.60;99.90;;;;;;4978442;28;20037;-86
2022/09/10 10:56:19;;;;;;;2.10;0.75;;;17.10;99.90;;;;;;4979374;28;20093;-86
2022/09/10 10:58:50;;;;;;;2.13;0.90;;;16.80;99.90;;;;;;4993405;28;20026;-86
2022/09/10 11:01:24;;;;;;;0.70;0.70;;;16.80;99.90;;;;;;4995743;28;20116;-86
2022/09/10 11:04:19;;;;;;;0.63;0.60;;;16.80;99.90;;;;;;4980720;28;20124;-86
2022/09/10 11:06:50;;;;;;;0.73;0.55;;;16.90;99.90;;;;;;4969750;28;20049;-86
2022/09/10 11:09:37;;;;;;;0.93;0.60;;;17.00;99.90;;;;;;4979809;28;20136;-86
2022/09/10 11:12:23;;;;;;;2.83;0.60;;;17.10;99.90;;;;;;4980834;28;20034;-86
2022/09/10 11:15:01;;;;;;;1.27;0.60;;;17.20;99.90;;;;;;4980228;28;20497;-86
2022/09/10 11:17:40;;;;;;;0.50;0.45;;;17.40;99.90;;;;;;4979828;28;20041;-86
2022/09/10 11:20:28;;;;;;;1.70;0.57;;;17.50;99.90;;;;;;4996693;28;20041;-86
2022/09/10 11:23:09;;;;;;;0.60;0.60;;;17.20;99.90;;;;;;4998115;28;20030;-86
2022/09/10 11:25:53;;;;;;;0.50;0.50;;;17.10;99.90;;;;;;4996195;28;20033;-86
2022/09/10 11:28:25;;;;;;;0.60;0.57;;;17.20;99.90;;;;;;4977693;28;20030;-86
2022/09/10 11:31:02;;;;;;;0.75;0.50;;;17.20;99.90;;;;;;4979951;28;20039;-86
2022/09/10 11:33:45;;;;;;;2.28;0.80;;;17.20;99.90;;;;;;4977400;28;20023;-86
2022/09/10 11:36:24;;;;;;;0.60;0.50;;;17.20;99.90;;;;;;4978589;28;20117;-86
2022/09/10 11:39:19;;;;;;;0.60;0.55;;;16.90;99.90;;;;;;4974693;28;20073;-86
2022/09/10 11:41:47;;;;;;;0.57;0.40;;;16.90;99.90;;;;;;4975775;28;20095;-86
2022/09/10 11:44:43;;;;;;;1.85;0.63;;;16.70;99.90;;;;;;4978970;28;20022;-86
2022/09/10 11:47:20;;;;;;;0.60;0.60;;;16.50;99.90;;;;;;4993061;28;20034;-86
2022/09/10 11:49:58;;;;;;;2.95;1.00;;;16.50;99.90;;;;;;4980862;28;20113;-86
2022/09/10 11:52:27;;;;;;;1.15;0.80;;;16.30;99.90;;;;;;4994354;28;20031;-86
2022/09/10 11:54:53;;;;;;;0.82;0.80;;;16.50;99.90;;;;;;4977558;28;20360;-86
2022/09/10 11:57:46;;;;;;;0.60;0.60;;;16.60;99.90;;;;;;4977871;28;20034;-86
2022/09/10 12:00:17;;;;;;;1.02;0.60;;;16.90;99.90;;;;;;4978508;28;20046;-86
2022/09/10 12:03:02;;;;;;;0.60;0.60;;;17.00;99.90;;;;;;4994145;28;20537;-86
2022/09/10 12:05:53;;;;;;;1.05;0.63;;;16.90;99.90;;;;;;4979426;28;20090;-86
2022/09/10 12:08:47;;;;;;;0.40;0.40;;;16.90;99.90;;;;;;4982207;28;20034;-86
2022/09/10 12:11:30;;;;;;;0.50;0.50;;;16.80;99.90;;;;;;4980237;28;20667;-86
2022/09/10 12:13:57;;;;;;;1.10;0.60;;;16.80;99.90;;;;;;4985152;28;20038;-86
2022/09/10 12:16:45;;;;;;;0.52;0.52;;;16.80;99.90;;;;;;4980598;28;20050;-86
2022/09/10 12:19:45;;;;;;;0.75;0.73;;;16.90;99.90;;;;;;5010543;28;20042;-86
2022/09/10 12:22:23;;;;;;;1.95;0.70;;;17.10;99.90;;;;;;4980327;28;20423;-86
2022/09/10 12:24:54;;;;;;;0.90;0.90;;;17.20;99.90;;;;;;4980577;28;20022;-86
2022/09/10 12:27:20;;;;;;;1.42;0.90;;;17.30;99.90;;;;;;4983857;28;20030;-86
2022/09/10 12:29:47;;;;;;;0.80;0.80;;;17.40;99.90;;;;;;4984962;28;20034;-86
2022/09/10 12:32:19;;;;;;;0.75;0.60;;;17.40;99.90;;;;;;4987750;28;20034;-86
2022/09/10 12:34:49;;;;;;;0.60;0.60;;;17.20;99.90;;;;;;5008319;28;20038;-86
2022/09/10 12:37:26;;;;;;;0.73;0.73;;;17.20;99.90;;;;;;5000607;28;20083;-86
2022/09/10 12:40:24;;;;;;;0.82;0.50;;;17.20;99.90;;;;;;5000788;28;20098;-86
2022/09/10 12:42:50;;;;;;;0.70;0.55;;;16.90;99.90;;;;;;4998496;28;20208;-86
2022/09/10 12:45:56;;;;;;;0.70;0.70;;;16.90;99.90;;;;;;4991031;28;20042;-86
2022/09/10 12:48:21;;;;;;;0.68;0.68;;;16.90;99.90;;;;;;4994013;28;20030;-86
2022/09/10 12:50:52;;;;;;;0.80;0.73;;;16.70;99.90;;;;;;4985307;28;20057;-86
2022/09/10 12:53:32;;;;;;;0.57;0.57;;;16.70;99.90;;;;;;4984531;28;20022;-86
2022/09/10 12:56:42;;;;;;;1.48;0.50;;;16.70;99.90;;;;;;4978988;28;20474;-86
2022/09/10 12:59:41;;;;;;;0.88;0.60;;;16.80;99.90;;;;;;4961515;28;20049;-86
2022/09/10 13:02:24;;;;;;;1.35;0.70;;;16.90;99.90;;;;;;4978432;28;20038;-86
2022/09/10 13:05:24;;;;;;;1.15;0.60;;;17.00;99.90;;;;;;4980032;28;20029;-86
2022/09/10 13:08:28;;;;;;;0.47;0.47;;;17.00;99.90;;;;;;4978633;28;20117;-86
2022/09/10 13:10:56;;;;;;;0.70;0.70;;;16.90;99.90;;;;;;4950914;28;20141;-86
2022/09/10 13:13:45;;;;;;;0.40;0.40;;;16.80;99.90;;;;;;4982265;28;20109;-86
2022/09/10 13:16:35;;;;;;;1.85;0.40;;;16.80;99.90;;;;;;4979699;28;20031;-86